Davilla, Texas
Current Conditions -  °F | °C
As of 4:58 AM on Monday 22 Dec 2014 (Local Time) from KGRK Reporting Station
Overcast Overcast  
Wind Chill: 55°   Ceiling: 1400
Heat Index: 55°   Visibility: 10mi
Dew Point: 52°   Wind: 12mph
Humidity: 90%   Direction: 200°SSW
Pressure: 29.67"   Gusts: 23mph
Location:  30.79°N, 97.28°W
Report Text: KGRK 221058Z AUTO 20010G20KT 10SM OVC014 13/11 A2967 RMK AO2 SLP045 T01280112
Loading
Personal Weather Stations






























Interactive Weather Map New forecast layout! Learn more

10-Day Weather Forecast

Advertisements
Track Severe Weather on mobile